sensor_id;sensor_type;location;lat;lon;timestamp;P1;durP1;ratioP1;P2;durP2;ratioP2
52434;SDS011;38354;52.892;6.148;2023-02-13T04:01:53;42.50;;;18.30;;
52434;SDS011;38354;52.892;6.148;2023-02-13T04:04:29;40.58;;;18.92;;
52434;SDS011;38354;52.892;6.148;2023-02-13T04:07:15;39.60;;;18.35;;
52434;SDS011;38354;52.892;6.148;2023-02-13T04:09:57;42.17;;;18.55;;
52434;SDS011;38354;52.892;6.148;2023-02-13T04:12:29;46.13;;;17.60;;
52434;SDS011;38354;52.892;6.148;2023-02-13T04:15:06;43.95;;;19.13;;
52434;SDS011;38354;52.892;6.148;2023-02-13T04:17:40;42.20;;;18.02;;
52434;SDS011;38354;52.892;6.148;2023-02-13T04:20:10;41.88;;;18.35;;
52434;SDS011;38354;52.892;6.148;2023-02-13T04:22:40;45.50;;;18.15;;
52434;SDS011;38354;52.892;6.148;2023-02-13T04:25:08;45.88;;;18.42;;
52434;SDS011;38354;52.892;6.148;2023-02-13T04:27:35;38.25;;;17.42;;
52434;SDS011;38354;52.892;6.148;2023-02-13T04:30:00;41.58;;;17.33;;
52434;SDS011;38354;52.892;6.148;2023-02-13T04:32:29;37.20;;;16.55;;
52434;SDS011;38354;52.892;6.148;2023-02-13T04:34:58;41.38;;;17.45;;
52434;SDS011;38354;52.892;6.148;2023-02-13T04:37:23;42.45;;;17.95;;
52434;SDS011;38354;52.892;6.148;2023-02-13T04:39:49;44.15;;;18.85;;
52434;SDS011;38354;52.892;6.148;2023-02-13T04:42:15;41.05;;;19.48;;
52434;SDS011;38354;52.892;6.148;2023-02-13T04:44:40;41.90;;;17.50;;
52434;SDS011;38354;52.892;6.148;2023-02-13T04:47:06;39.95;;;17.67;;
52434;SDS011;38354;52.892;6.148;2023-02-13T04:49:31;39.70;;;17.55;;
52434;SDS011;38354;52.892;6.148;2023-02-13T04:51:57;39.00;;;17.65;;
52434;SDS011;38354;52.892;6.148;2023-02-13T04:54:23;41.78;;;18.10;;
52434;SDS011;38354;52.892;6.148;2023-02-13T04:56:48;41.85;;;18.30;;
52434;SDS011;38354;52.892;6.148;2023-02-13T04:59:14;40.35;;;17.92;;
52434;SDS011;38354;52.892;6.148;2023-02-13T05:01:39;45.30;;;17.85;;
52434;SDS011;38354;52.892;6.148;2023-02-13T05:04:05;39.30;;;17.80;;
52434;SDS011;38354;52.892;6.148;2023-02-13T05:06:31;38.63;;;17.23;;
52434;SDS011;38354;52.892;6.148;2023-02-13T05:08:56;43.88;;;17.52;;
52434;SDS011;38354;52.892;6.148;2023-02-13T05:11:22;41.45;;;17.65;;
52434;SDS011;38354;52.892;6.148;2023-02-13T05:13:47;45.92;;;17.42;;
52434;SDS011;38354;52.892;6.148;2023-02-13T05:16:13;37.63;;;18.02;;
52434;SDS011;38354;52.892;6.148;2023-02-13T05:18:39;43.25;;;18.10;;
52434;SDS011;38354;52.892;6.148;2023-02-13T05:21:04;41.97;;;17.40;;
52434;SDS011;38354;52.892;6.148;2023-02-13T05:23:49;39.28;;;16.92;;
52434;SDS011;38354;52.892;6.148;2023-02-13T05:26:14;43.60;;;18.52;;
52434;SDS011;38354;52.892;6.148;2023-02-13T05:28:40;40.95;;;17.10;;
52434;SDS011;38354;52.892;6.148;2023-02-13T05:31:24;39.47;;;17.67;;
52434;SDS011;38354;52.892;6.148;2023-02-13T05:33:49;38.97;;;17.58;;
52434;SDS011;38354;52.892;6.148;2023-02-13T05:36:15;46.25;;;18.30;;
52434;SDS011;38354;52.892;6.148;2023-02-13T05:38:41;39.55;;;16.70;;
52434;SDS011;38354;52.892;6.148;2023-02-13T05:41:06;43.05;;;18.35;;
52434;SDS011;38354;52.892;6.148;2023-02-13T05:43:32;42.10;;;18.33;;
52434;SDS011;38354;52.892;6.148;2023-02-13T05:46:04;39.40;;;17.52;;
52434;SDS011;38354;52.892;6.148;2023-02-13T05:48:31;36.50;;;15.90;;
52434;SDS011;38354;52.892;6.148;2023-02-13T05:50:57;39.35;;;16.95;;
52434;SDS011;38354;52.892;6.148;2023-02-13T05:53:22;41.45;;;17.02;;
52434;SDS011;38354;52.892;6.148;2023-02-13T05:55:48;43.15;;;17.83;;
52434;SDS011;38354;52.892;6.148;2023-02-13T05:58:16;40.67;;;16.30;;
52434;SDS011;38354;52.892;6.148;2023-02-13T06:00:42;40.75;;;17.65;;
52434;SDS011;38354;52.892;6.148;2023-02-13T06:03:08;39.92;;;17.38;;
52434;SDS011;38354;52.892;6.148;2023-02-13T06:05:34;41.22;;;18.20;;
52434;SDS011;38354;52.892;6.148;2023-02-13T06:07:59;41.42;;;17.83;;
52434;SDS011;38354;52.892;6.148;2023-02-13T06:10:25;42.70;;;17.40;;
52434;SDS011;38354;52.892;6.148;2023-02-13T06:12:51;41.33;;;17.30;;
52434;SDS011;38354;52.892;6.148;2023-02-13T06:15:16;42.65;;;18.80;;
52434;SDS011;38354;52.892;6.148;2023-02-13T06:17:42;41.88;;;17.35;;
52434;SDS011;38354;52.892;6.148;2023-02-13T06:20:08;41.70;;;17.00;;
52434;SDS011;38354;52.892;6.148;2023-02-13T06:22:33;42.17;;;18.33;;
52434;SDS011;38354;52.892;6.148;2023-02-13T06:24:59;43.33;;;16.80;;
52434;SDS011;38354;52.892;6.148;2023-02-13T06:27:25;42.22;;;17.98;;
52434;SDS011;38354;52.892;6.148;2023-02-13T06:29:50;42.08;;;16.80;;
52434;SDS011;38354;52.892;6.148;2023-02-13T06:32:16;44.05;;;17.15;;
52434;SDS011;38354;52.892;6.148;2023-02-13T06:34:42;42.65;;;17.35;;
52434;SDS011;38354;52.892;6.148;2023-02-13T06:37:07;41.35;;;18.17;;
52434;SDS011;38354;52.892;6.148;2023-02-13T06:39:33;41.90;;;17.40;;
52434;SDS011;38354;52.892;6.148;2023-02-13T06:41:59;44.72;;;18.42;;
52434;SDS011;38354;52.892;6.148;2023-02-13T06:44:24;39.83;;;17.05;;
52434;SDS011;38354;52.892;6.148;2023-02-13T06:46:50;39.58;;;16.83;;
52434;SDS011;38354;52.892;6.148;2023-02-13T06:49:15;43.88;;;17.95;;
52434;SDS011;38354;52.892;6.148;2023-02-13T06:51:41;44.08;;;18.05;;
52434;SDS011;38354;52.892;6.148;2023-02-13T06:54:07;40.65;;;15.70;;
52434;SDS011;38354;52.892;6.148;2023-02-13T06:56:32;40.90;;;18.02;;
52434;SDS011;38354;52.892;6.148;2023-02-13T06:58:58;35.80;;;15.00;;
52434;SDS011;38354;52.892;6.148;2023-02-13T07:01:24;41.55;;;16.92;;
52434;SDS011;38354;52.892;6.148;2023-02-13T07:03:50;39.53;;;16.30;;
52434;SDS011;38354;52.892;6.148;2023-02-13T07:06:16;44.20;;;17.70;;
52434;SDS011;38354;52.892;6.148;2023-02-13T07:08:45;40.63;;;16.95;;
52434;SDS011;38354;52.892;6.148;2023-02-13T07:11:16;43.00;;;17.17;;
52434;SDS011;38354;52.892;6.148;2023-02-13T07:13:42;42.50;;;17.23;;
52434;SDS011;38354;52.892;6.148;2023-02-13T07:16:08;39.53;;;17.23;;
52434;SDS011;38354;52.892;6.148;2023-02-13T07:18:33;37.20;;;15.57;;
52434;SDS011;38354;52.892;6.148;2023-02-13T07:20:59;41.15;;;16.67;;
52434;SDS011;38354;52.892;6.148;2023-02-13T07:23:25;38.70;;;15.95;;
52434;SDS011;38354;52.892;6.148;2023-02-13T07:25:50;41.20;;;17.27;;
52434;SDS011;38354;52.892;6.148;2023-02-13T07:28:16;39.83;;;16.38;;
52434;SDS011;38354;52.892;6.148;2023-02-13T07:30:42;41.22;;;17.02;;
52434;SDS011;38354;52.892;6.148;2023-02-13T07:33:08;42.75;;;17.10;;
52434;SDS011;38354;52.892;6.148;2023-02-13T07:35:34;41.38;;;16.98;;
52434;SDS011;38354;52.892;6.148;2023-02-13T07:38:01;44.70;;;17.38;;
52434;SDS011;38354;52.892;6.148;2023-02-13T07:40:28;45.63;;;17.92;;
52434;SDS011;38354;52.892;6.148;2023-02-13T07:42:54;44.45;;;17.35;;
52434;SDS011;38354;52.892;6.148;2023-02-13T07:45:19;40.17;;;16.23;;
52434;SDS011;38354;52.892;6.148;2023-02-13T07:47:45;38.08;;;15.50;;
52434;SDS011;38354;52.892;6.148;2023-02-13T07:50:11;40.78;;;17.08;;
52434;SDS011;38354;52.892;6.148;2023-02-13T07:52:37;44.38;;;16.92;;
52434;SDS011;38354;52.892;6.148;2023-02-13T07:55:03;41.88;;;17.80;;
52434;SDS011;38354;52.892;6.148;2023-02-13T07:57:29;43.38;;;16.58;;
52434;SDS011;38354;52.892;6.148;2023-02-13T07:59:56;42.72;;;16.00;;
52434;SDS011;38354;52.892;6.148;2023-02-13T08:02:22;43.17;;;16.80;;
52434;SDS011;38354;52.892;6.148;2023-02-13T08:04:47;40.63;;;16.75;;
52434;SDS011;38354;52.892;6.148;2023-02-13T08:07:13;38.88;;;17.02;;
52434;SDS011;38354;52.892;6.148;2023-02-13T08:09:40;37.30;;;15.75;;
52434;SDS011;38354;52.892;6.148;2023-02-13T08:12:27;37.85;;;15.88;;
52434;SDS011;38354;52.892;6.148;2023-02-13T08:14:53;41.97;;;16.73;;
52434;SDS011;38354;52.892;6.148;2023-02-13T08:17:18;38.95;;;16.48;;
52434;SDS011;38354;52.892;6.148;2023-02-13T08:19:44;41.90;;;16.77;;
52434;SDS011;38354;52.892;6.148;2023-02-13T08:22:10;41.78;;;16.55;;
52434;SDS011;38354;52.892;6.148;2023-02-13T08:24:35;45.13;;;18.00;;
52434;SDS011;38354;52.892;6.148;2023-02-13T08:27:01;46.25;;;18.13;;
52434;SDS011;38354;52.892;6.148;2023-02-13T08:29:27;39.47;;;15.60;;
52434;SDS011;38354;52.892;6.148;2023-02-13T08:31:52;37.75;;;16.23;;
52434;SDS011;38354;52.892;6.148;2023-02-13T08:34:18;40.88;;;16.30;;
52434;SDS011;38354;52.892;6.148;2023-02-13T08:36:43;39.47;;;16.10;;
52434;SDS011;38354;52.892;6.148;2023-02-13T08:39:09;39.05;;;16.23;;
52434;SDS011;38354;52.892;6.148;2023-02-13T08:41:35;40.63;;;17.17;;
52434;SDS011;38354;52.892;6.148;2023-02-13T08:44:01;39.60;;;17.20;;
52434;SDS011;38354;52.892;6.148;2023-02-13T08:46:26;39.92;;;16.83;;
52434;SDS011;38354;52.892;6.148;2023-02-13T08:48:52;37.92;;;16.15;;
52434;SDS011;38354;52.892;6.148;2023-02-13T08:51:18;39.55;;;15.48;;
52434;SDS011;38354;52.892;6.148;2023-02-13T08:53:44;38.42;;;16.25;;
52434;SDS011;38354;52.892;6.148;2023-02-13T08:56:09;34.50;;;15.77;;
52434;SDS011;38354;52.892;6.148;2023-02-13T08:58:35;37.67;;;16.40;;
52434;SDS011;38354;52.892;6.148;2023-02-13T09:01:07;37.83;;;16.40;;
52434;SDS011;38354;52.892;6.148;2023-02-13T09:03:33;38.35;;;16.02;;
52434;SDS011;38354;52.892;6.148;2023-02-13T09:06:00;38.88;;;16.65;;
52434;SDS011;38354;52.892;6.148;2023-02-13T09:08:27;39.95;;;17.50;;
52434;SDS011;38354;52.892;6.148;2023-02-13T09:10:59;39.03;;;16.65;;
52434;SDS011;38354;52.892;6.148;2023-02-13T09:13:27;38.28;;;16.55;;
52434;SDS011;38354;52.892;6.148;2023-02-13T09:15:56;39.83;;;16.15;;
52434;SDS011;38354;52.892;6.148;2023-02-13T09:18:26;35.03;;;16.00;;
52434;SDS011;38354;52.892;6.148;2023-02-13T09:20:56;35.75;;;16.73;;
52434;SDS011;38354;52.892;6.148;2023-02-13T09:23:23;40.33;;;16.77;;
52434;SDS011;38354;52.892;6.148;2023-02-13T09:25:48;38.03;;;15.38;;
52434;SDS011;38354;52.892;6.148;2023-02-13T09:28:14;39.13;;;14.95;;
52434;SDS011;38354;52.892;6.148;2023-02-13T09:30:39;37.65;;;16.73;;
52434;SDS011;38354;52.892;6.148;2023-02-13T09:33:08;35.17;;;14.68;;
52434;SDS011;38354;52.892;6.148;2023-02-13T09:35:36;35.25;;;15.38;;
52434;SDS011;38354;52.892;6.148;2023-02-13T09:38:01;37.13;;;16.20;;
52434;SDS011;38354;52.892;6.148;2023-02-13T09:40:28;34.17;;;15.38;;
52434;SDS011;38354;52.892;6.148;2023-02-13T09:45:36;36.90;;;15.60;;
52434;SDS011;38354;52.892;6.148;2023-02-13T09:48:02;36.72;;;15.50;;
52434;SDS011;38354;52.892;6.148;2023-02-13T09:50:30;36.50;;;14.88;;
52434;SDS011;38354;52.892;6.148;2023-02-13T09:52:59;40.75;;;15.48;;
52434;SDS011;38354;52.892;6.148;2023-02-13T09:55:45;34.20;;;14.68;;
52434;SDS011;38354;52.892;6.148;2023-02-13T09:58:37;37.38;;;15.93;;
52434;SDS011;38354;52.892;6.148;2023-02-13T10:01:17;36.88;;;15.93;;
52434;SDS011;38354;52.892;6.148;2023-02-13T10:07:03;32.53;;;15.05;;
52434;SDS011;38354;52.892;6.148;2023-02-13T10:12:54;35.10;;;15.35;;
52434;SDS011;38354;52.892;6.148;2023-02-13T10:18:16;35.33;;;15.50;;
52434;SDS011;38354;52.892;6.148;2023-02-13T10:20:46;33.05;;;14.75;;
52434;SDS011;38354;52.892;6.148;2023-02-13T10:23:32;36.10;;;14.23;;
52434;SDS011;38354;52.892;6.148;2023-02-13T10:26:30;33.05;;;14.27;;
52434;SDS011;38354;52.892;6.148;2023-02-13T10:32:30;34.10;;;15.90;;
52434;SDS011;38354;52.892;6.148;2023-02-13T10:35:16;35.38;;;14.77;;
52434;SDS011;38354;52.892;6.148;2023-02-13T10:37:48;35.63;;;14.50;;
52434;SDS011;38354;52.892;6.148;2023-02-13T10:40:18;34.50;;;14.88;;
52434;SDS011;38354;52.892;6.148;2023-02-13T10:42:44;33.15;;;14.52;;
52434;SDS011;38354;52.892;6.148;2023-02-13T10:56:59;34.45;;;14.40;;
52434;SDS011;38354;52.892;6.148;2023-02-13T10:59:36;32.72;;;14.23;;
52434;SDS011;38354;52.892;6.148;2023-02-13T11:02:22;31.83;;;14.43;;
52434;SDS011;38354;52.892;6.148;2023-02-13T11:04:54;33.25;;;14.43;;
52434;SDS011;38354;52.892;6.148;2023-02-13T11:07:25;32.25;;;15.38;;
52434;SDS011;38354;52.892;6.148;2023-02-13T11:09:54;34.47;;;15.25;;
52434;SDS011;38354;52.892;6.148;2023-02-13T11:14:54;33.95;;;14.73;;
52434;SDS011;38354;52.892;6.148;2023-02-13T11:17:37;32.83;;;15.88;;
52434;SDS011;38354;52.892;6.148;2023-02-13T11:22:51;34.35;;;14.90;;
52434;SDS011;38354;52.892;6.148;2023-02-13T11:25:19;35.05;;;15.98;;
52434;SDS011;38354;52.892;6.148;2023-02-13T11:27:50;31.15;;;14.85;;
52434;SDS011;38354;52.892;6.148;2023-02-13T11:30:32;33.63;;;15.70;;
52434;SDS011;38354;52.892;6.148;2023-02-13T11:33:00;33.75;;;15.98;;
52434;SDS011;38354;52.892;6.148;2023-02-13T11:35:42;32.95;;;15.63;;
52434;SDS011;38354;52.892;6.148;2023-02-13T11:40:40;37.63;;;15.93;;
52434;SDS011;38354;52.892;6.148;2023-02-13T11:45:59;34.55;;;16.85;;
52434;SDS011;38354;52.892;6.148;2023-02-13T11:48:29;33.90;;;17.10;;
52434;SDS011;38354;52.892;6.148;2023-02-13T11:50:55;30.08;;;16.05;;
52434;SDS011;38354;52.892;6.148;2023-02-13T11:53:22;33.35;;;16.52;;
52434;SDS011;38354;52.892;6.148;2023-02-13T11:56:05;35.17;;;17.45;;
52434;SDS011;38354;52.892;6.148;2023-02-13T11:58:35;31.70;;;16.40;;
52434;SDS011;38354;52.892;6.148;2023-02-13T12:03:35;30.30;;;15.88;;
52434;SDS011;38354;52.892;6.148;2023-02-13T12:06:04;35.28;;;17.02;;
52434;SDS011;38354;52.892;6.148;2023-02-13T12:08:40;31.23;;;17.30;;
52434;SDS011;38354;52.892;6.148;2023-02-13T12:13:58;34.55;;;17.83;;
52434;SDS011;38354;52.892;6.148;2023-02-13T12:16:29;34.42;;;17.63;;
52434;SDS011;38354;52.892;6.148;2023-02-13T12:19:10;35.78;;;19.08;;
52434;SDS011;38354;52.892;6.148;2023-02-13T12:21:46;31.65;;;17.83;;
52434;SDS011;38354;52.892;6.148;2023-02-13T12:24:36;33.75;;;17.42;;
52434;SDS011;38354;52.892;6.148;2023-02-13T12:30:13;31.33;;;17.27;;
52434;SDS011;38354;52.892;6.148;2023-02-13T12:35:56;33.75;;;17.92;;
52434;SDS011;38354;52.892;6.148;2023-02-13T12:38:47;35.63;;;19.00;;
52434;SDS011;38354;52.892;6.148;2023-02-13T12:46:15;35.67;;;19.95;;
52434;SDS011;38354;52.892;6.148;2023-02-13T12:49:14;36.30;;;19.65;;
52434;SDS011;38354;52.892;6.148;2023-02-13T12:57:06;35.38;;;20.50;;
52434;SDS011;38354;52.892;6.148;2023-02-13T13:02:24;38.05;;;21.85;;
52434;SDS011;38354;52.892;6.148;2023-02-13T13:05:22;40.47;;;22.95;;
52434;SDS011;38354;52.892;6.148;2023-02-13T13:13:51;37.10;;;21.85;;
52434;SDS011;38354;52.892;6.148;2023-02-13T13:16:27;36.30;;;21.75;;
52434;SDS011;38354;52.892;6.148;2023-02-13T13:19:12;39.35;;;23.40;;
52434;SDS011;38354;52.892;6.148;2023-02-13T13:21:55;37.22;;;22.55;;
52434;SDS011;38354;52.892;6.148;2023-02-13T13:27:35;41.15;;;23.13;;
52434;SDS011;38354;52.892;6.148;2023-02-13T13:30:21;41.20;;;23.58;;
52434;SDS011;38354;52.892;6.148;2023-02-13T13:32:57;41.22;;;22.77;;
52434;SDS011;38354;52.892;6.148;2023-02-13T13:35:27;38.13;;;22.98;;
52434;SDS011;38354;52.892;6.148;2023-02-13T13:38:02;39.90;;;23.40;;
52434;SDS011;38354;52.892;6.148;2023-02-13T13:40:50;38.55;;;23.58;;
52434;SDS011;38354;52.892;6.148;2023-02-13T13:46:21;41.83;;;23.52;;
52434;SDS011;38354;52.892;6.148;2023-02-13T13:48:59;39.10;;;23.48;;
52434;SDS011;38354;52.892;6.148;2023-02-13T13:52:07;41.35;;;24.88;;
52434;SDS011;38354;52.892;6.148;2023-02-13T13:54:44;42.05;;;25.13;;
52434;SDS011;38354;52.892;6.148;2023-02-13T13:57:15;41.10;;;25.45;;
52434;SDS011;38354;52.892;6.148;2023-02-13T14:07:45;42.97;;;24.77;;
52434;SDS011;38354;52.892;6.148;2023-02-13T14:24:01;43.80;;;25.15;;
52434;SDS011;38354;52.892;6.148;2023-02-13T14:26:08;41.90;;;24.65;;
52434;SDS011;38354;52.892;6.148;2023-02-13T14:28:34;41.83;;;24.23;;
52434;SDS011;38354;52.892;6.148;2023-02-13T14:34:07;39.63;;;24.75;;
52434;SDS011;38354;52.892;6.148;2023-02-13T14:36:39;41.53;;;24.17;;
52434;SDS011;38354;52.892;6.148;2023-02-13T14:39:28;44.50;;;25.75;;
52434;SDS011;38354;52.892;6.148;2023-02-13T14:42:00;40.05;;;24.52;;
52434;SDS011;38354;52.892;6.148;2023-02-13T14:44:38;42.15;;;25.25;;
52434;SDS011;38354;52.892;6.148;2023-02-13T14:47:18;38.63;;;24.13;;
52434;SDS011;38354;52.892;6.148;2023-02-13T14:49:52;42.47;;;24.92;;
52434;SDS011;38354;52.892;6.148;2023-02-13T14:52:21;43.53;;;25.23;;
52434;SDS011;38354;52.892;6.148;2023-02-13T14:54:53;41.00;;;23.90;;
52434;SDS011;38354;52.892;6.148;2023-02-13T14:57:28;39.00;;;23.02;;
52434;SDS011;38354;52.892;6.148;2023-02-13T15:00:00;41.97;;;24.05;;
52434;SDS011;38354;52.892;6.148;2023-02-13T15:02:52;40.45;;;24.25;;
52434;SDS011;38354;52.892;6.148;2023-02-13T15:05:22;40.67;;;24.50;;
52434;SDS011;38354;52.892;6.148;2023-02-13T15:08:15;41.40;;;24.75;;
52434;SDS011;38354;52.892;6.148;2023-02-13T15:10:49;39.70;;;23.90;;
52434;SDS011;38354;52.892;6.148;2023-02-13T15:13:21;39.10;;;25.23;;
52434;SDS011;38354;52.892;6.148;2023-02-13T15:15:51;40.80;;;24.90;;
52434;SDS011;38354;52.892;6.148;2023-02-13T15:18:29;39.97;;;24.35;;
52434;SDS011;38354;52.892;6.148;2023-02-13T15:21:00;39.80;;;24.52;;
52434;SDS011;38354;52.892;6.148;2023-02-13T15:23:27;40.88;;;24.90;;
52434;SDS011;38354;52.892;6.148;2023-02-13T15:25:55;41.17;;;25.65;;
52434;SDS011;38354;52.892;6.148;2023-02-13T15:28:31;40.65;;;25.35;;
52434;SDS011;38354;52.892;6.148;2023-02-13T15:31:00;48.33;;;25.85;;
52434;SDS011;38354;52.892;6.148;2023-02-13T15:33:30;41.72;;;25.20;;
52434;SDS011;38354;52.892;6.148;2023-02-13T15:36:00;39.72;;;25.23;;
52434;SDS011;38354;52.892;6.148;2023-02-13T15:38:29;39.17;;;25.10;;
52434;SDS011;38354;52.892;6.148;2023-02-13T15:41:05;40.25;;;25.70;;
52434;SDS011;38354;52.892;6.148;2023-02-13T15:43:35;37.92;;;24.65;;
52434;SDS011;38354;52.892;6.148;2023-02-13T15:46:17;38.85;;;25.95;;
52434;SDS011;38354;52.892;6.148;2023-02-13T15:48:49;41.00;;;25.92;;
52434;SDS011;38354;52.892;6.148;2023-02-13T15:51:17;40.53;;;24.67;;
52434;SDS011;38354;52.892;6.148;2023-02-13T15:56:17;42.80;;;25.77;;
52434;SDS011;38354;52.892;6.148;2023-02-13T15:58:42;41.15;;;25.55;;
52434;SDS011;38354;52.892;6.148;2023-02-13T16:01:08;39.60;;;24.40;;
52434;SDS011;38354;52.892;6.148;2023-02-13T16:03:35;42.72;;;26.25;;
52434;SDS011;38354;52.892;6.148;2023-02-13T16:06:03;43.13;;;25.90;;
52434;SDS011;38354;52.892;6.148;2023-02-13T16:08:32;42.53;;;26.05;;
52434;SDS011;38354;52.892;6.148;2023-02-13T16:19:30;44.33;;;27.00;;
52434;SDS011;38354;52.892;6.148;2023-02-13T16:24:52;48.38;;;27.02;;
52434;SDS011;38354;52.892;6.148;2023-02-13T16:27:24;46.83;;;28.23;;
52434;SDS011;38354;52.892;6.148;2023-02-13T16:29:59;45.45;;;27.02;;
52434;SDS011;38354;52.892;6.148;2023-02-13T16:32:32;44.92;;;26.42;;
52434;SDS011;38354;52.892;6.148;2023-02-13T16:35:16;48.08;;;27.45;;
52434;SDS011;38354;52.892;6.148;2023-02-13T16:37:58;47.15;;;27.27;;
52434;SDS011;38354;52.892;6.148;2023-02-13T16:42:51;51.13;;;28.08;;
52434;SDS011;38354;52.892;6.148;2023-02-13T16:45:21;48.58;;;27.05;;
52434;SDS011;38354;52.892;6.148;2023-02-13T16:47:47;49.97;;;27.65;;
52434;SDS011;38354;52.892;6.148;2023-02-13T16:50:26;53.60;;;28.75;;
52434;SDS011;38354;52.892;6.148;2023-02-13T16:52:58;50.03;;;27.35;;
52434;SDS011;38354;52.892;6.148;2023-02-13T16:55:25;51.30;;;28.80;;
52434;SDS011;38354;52.892;6.148;2023-02-13T16:57:51;50.70;;;27.45;;
52434;SDS011;38354;52.892;6.148;2023-02-13T17:00:26;50.13;;;27.80;;
52434;SDS011;38354;52.892;6.148;2023-02-13T17:02:52;47.40;;;27.75;;
52434;SDS011;38354;52.892;6.148;2023-02-13T17:05:22;50.40;;;27.98;;
52434;SDS011;38354;52.892;6.148;2023-02-13T17:07:51;49.60;;;27.70;;
52434;SDS011;38354;52.892;6.148;2023-02-13T17:10:24;54.65;;;26.25;;
52434;SDS011;38354;52.892;6.148;2023-02-13T17:12:53;52.50;;;28.08;;
52434;SDS011;38354;52.892;6.148;2023-02-13T17:15:24;48.83;;;27.13;;
52434;SDS011;38354;52.892;6.148;2023-02-13T17:17:51;48.55;;;26.85;;
52434;SDS011;38354;52.892;6.148;2023-02-13T17:20:23;48.60;;;26.52;;
52434;SDS011;38354;52.892;6.148;2023-02-13T17:22:57;54.03;;;28.95;;
52434;SDS011;38354;52.892;6.148;2023-02-13T17:25:25;54.15;;;29.25;;
52434;SDS011;38354;52.892;6.148;2023-02-13T17:27:54;52.78;;;28.88;;
52434;SDS011;38354;52.892;6.148;2023-02-13T17:30:22;51.83;;;26.75;;
52434;SDS011;38354;52.892;6.148;2023-02-13T17:32:52;49.15;;;26.42;;
52434;SDS011;38354;52.892;6.148;2023-02-13T17:35:28;50.33;;;26.65;;
52434;SDS011;38354;52.892;6.148;2023-02-13T17:37:53;51.30;;;28.42;;
52434;SDS011;38354;52.892;6.148;2023-02-13T17:40:20;55.75;;;28.73;;
52434;SDS011;38354;52.892;6.148;2023-02-13T17:42:50;56.60;;;29.13;;
52434;SDS011;38354;52.892;6.148;2023-02-13T17:45:18;51.13;;;26.05;;
52434;SDS011;38354;52.892;6.148;2023-02-13T17:47:46;48.10;;;25.98;;
52434;SDS011;38354;52.892;6.148;2023-02-13T17:50:12;53.17;;;26.85;;
52434;SDS011;38354;52.892;6.148;2023-02-13T17:52:38;63.22;;;31.45;;
52434;SDS011;38354;52.892;6.148;2023-02-13T17:55:06;59.05;;;29.92;;
52434;SDS011;38354;52.892;6.148;2023-02-13T17:57:48;57.45;;;30.20;;
52434;SDS011;38354;52.892;6.148;2023-02-13T18:00:15;61.03;;;33.03;;
52434;SDS011;38354;52.892;6.148;2023-02-13T18:02:41;57.35;;;29.88;;
52434;SDS011;38354;52.892;6.148;2023-02-13T18:05:08;51.55;;;27.60;;
52434;SDS011;38354;52.892;6.148;2023-02-13T18:07:34;58.10;;;28.63;;
52434;SDS011;38354;52.892;6.148;2023-02-13T18:10:00;58.75;;;31.92;;
52434;SDS011;38354;52.892;6.148;2023-02-13T18:12:26;62.60;;;32.55;;
52434;SDS011;38354;52.892;6.148;2023-02-13T18:14:52;67.45;;;33.03;;
52434;SDS011;38354;52.892;6.148;2023-02-13T18:17:18;61.63;;;30.83;;
52434;SDS011;38354;52.892;6.148;2023-02-13T18:19:44;59.50;;;30.20;;
52434;SDS011;38354;52.892;6.148;2023-02-13T18:22:11;60.83;;;30.48;;
52434;SDS011;38354;52.892;6.148;2023-02-13T18:24:38;58.65;;;30.25;;
52434;SDS011;38354;52.892;6.148;2023-02-13T18:27:05;60.55;;;29.02;;
52434;SDS011;38354;52.892;6.148;2023-02-13T18:29:32;58.03;;;28.58;;
52434;SDS011;38354;52.892;6.148;2023-02-13T18:32:01;52.05;;;26.88;;
52434;SDS011;38354;52.892;6.148;2023-02-13T18:34:27;53.92;;;27.73;;
52434;SDS011;38354;52.892;6.148;2023-02-13T18:36:53;53.38;;;26.60;;
52434;SDS011;38354;52.892;6.148;2023-02-13T18:39:19;47.78;;;24.65;;
52434;SDS011;38354;52.892;6.148;2023-02-13T18:41:44;50.03;;;24.77;;
52434;SDS011;38354;52.892;6.148;2023-02-13T18:44:10;55.28;;;25.70;;
52434;SDS011;38354;52.892;6.148;2023-02-13T18:46:36;52.75;;;26.35;;
52434;SDS011;38354;52.892;6.148;2023-02-13T18:49:01;50.53;;;26.08;;
52434;SDS011;38354;52.892;6.148;2023-02-13T18:51:28;52.78;;;24.90;;
52434;SDS011;38354;52.892;6.148;2023-02-13T18:53:53;57.20;;;27.52;;
52434;SDS011;38354;52.892;6.148;2023-02-13T18:56:19;48.33;;;25.67;;
52434;SDS011;38354;52.892;6.148;2023-02-13T18:58:47;49.75;;;26.00;;
52434;SDS011;38354;52.892;6.148;2023-02-13T19:01:14;50.85;;;26.80;;
52434;SDS011;38354;52.892;6.148;2023-02-13T19:03:43;47.33;;;24.70;;
52434;SDS011;38354;52.892;6.148;2023-02-13T19:06:11;48.15;;;24.90;;
52434;SDS011;38354;52.892;6.148;2023-02-13T19:08:38;51.00;;;24.73;;
52434;SDS011;38354;52.892;6.148;2023-02-13T19:11:05;50.92;;;25.73;;
52434;SDS011;38354;52.892;6.148;2023-02-13T19:13:32;56.55;;;27.33;;
52434;SDS011;38354;52.892;6.148;2023-02-13T19:16:02;54.65;;;26.27;;
52434;SDS011;38354;52.892;6.148;2023-02-13T19:18:36;54.92;;;26.80;;
52434;SDS011;38354;52.892;6.148;2023-02-13T19:21:03;54.42;;;25.83;;
52434;SDS011;38354;52.892;6.148;2023-02-13T19:23:30;56.00;;;26.23;;
52434;SDS011;38354;52.892;6.148;2023-02-13T19:25:56;58.22;;;27.17;;
52434;SDS011;38354;52.892;6.148;2023-02-13T19:28:21;54.47;;;26.73;;
52434;SDS011;38354;52.892;6.148;2023-02-13T19:30:48;53.28;;;25.98;;
52434;SDS011;38354;52.892;6.148;2023-02-13T19:33:13;54.10;;;25.45;;
52434;SDS011;38354;52.892;6.148;2023-02-13T19:35:39;53.67;;;27.08;;
52434;SDS011;38354;52.892;6.148;2023-02-13T19:38:05;56.72;;;27.02;;
52434;SDS011;38354;52.892;6.148;2023-02-13T19:40:32;51.03;;;26.20;;
52434;SDS011;38354;52.892;6.148;2023-02-13T19:42:57;54.85;;;26.67;;
52434;SDS011;38354;52.892;6.148;2023-02-13T19:45:23;55.33;;;26.30;;
52434;SDS011;38354;52.892;6.148;2023-02-13T19:47:49;50.88;;;26.38;;
52434;SDS011;38354;52.892;6.148;2023-02-13T19:50:14;56.58;;;27.77;;
52434;SDS011;38354;52.892;6.148;2023-02-13T19:52:41;54.90;;;25.98;;
52434;SDS011;38354;52.892;6.148;2023-02-13T19:55:07;56.85;;;26.67;;
52434;SDS011;38354;52.892;6.148;2023-02-13T19:57:33;50.72;;;26.10;;
52434;SDS011;38354;52.892;6.148;2023-02-13T20:00:00;60.55;;;29.25;;
52434;SDS011;38354;52.892;6.148;2023-02-13T20:02:28;66.65;;;30.50;;
52434;SDS011;38354;52.892;6.148;2023-02-13T20:04:54;65.75;;;29.38;;
52434;SDS011;38354;52.892;6.148;2023-02-13T20:07:19;59.67;;;29.42;;
52434;SDS011;38354;52.892;6.148;2023-02-13T20:09:45;63.80;;;29.77;;
52434;SDS011;38354;52.892;6.148;2023-02-13T20:12:11;70.00;;;31.23;;
52434;SDS011;38354;52.892;6.148;2023-02-13T20:14:36;68.13;;;30.70;;
52434;SDS011;38354;52.892;6.148;2023-02-13T20:17:02;65.55;;;29.58;;
52434;SDS011;38354;52.892;6.148;2023-02-13T20:19:29;66.15;;;32.05;;
52434;SDS011;38354;52.892;6.148;2023-02-13T20:21:54;63.63;;;29.17;;
52434;SDS011;38354;52.892;6.148;2023-02-13T20:24:20;61.63;;;28.75;;
52434;SDS011;38354;52.892;6.148;2023-02-13T20:26:46;62.40;;;30.52;;
52434;SDS011;38354;52.892;6.148;2023-02-13T20:29:12;58.75;;;28.05;;
52434;SDS011;38354;52.892;6.148;2023-02-13T20:31:37;57.88;;;29.00;;